Cornville, Arizona
Current Conditions -  °F | °C
As of 4:15 PM on Wednesday 26 Nov 2014 (Local Time) from KSEZ Reporting Station
Clear Clear  
Wind Chill: 68°   Ceiling: Unl
Heat Index: 68°   Visibility: 10mi
Dew Point: 21°   Wind: 3mph
Humidity: 17%   Direction: 190°S
Pressure: 30.33"   Gusts: NA
Location:  34.72°N, 111.92°W
Report Text: KSEZ 262315Z AUTO 19003KT 10SM CLR 20/M06 A3033 RMK AO2
Loading
Personal Weather Stations






























Interactive Weather Map New forecast layout! Learn more

10-Day Weather Forecast

Advertisements
Track Severe Weather on mobile